sensor_id;sensor_type;location;lat;lon;timestamp;pressure;altitude;pressure_sealevel;temperature;humidity
75640;BME280;64233;51.486;6.332;2024-02-28T00:01:29;154072.66;;;-1.70;100.00
75640;BME280;64233;51.486;6.332;2024-02-28T00:03:54;154029.31;;;-1.87;100.00
75640;BME280;64233;51.486;6.332;2024-02-28T00:06:20;154026.78;;;-1.88;100.00
75640;BME280;64233;51.486;6.332;2024-02-28T00:08:46;154034.44;;;-1.85;100.00
75640;BME280;64233;51.486;6.332;2024-02-28T00:11:11;154020.41;;;-1.91;100.00
75640;BME280;64233;51.486;6.332;2024-02-28T00:13:36;154011.47;;;-1.95;100.00
75640;BME280;64233;51.486;6.332;2024-02-28T00:16:02;154012.78;;;-1.94;100.00
75640;BME280;64233;51.486;6.332;2024-02-28T00:18:28;154002.56;;;-1.98;100.00
75640;BME280;64233;51.486;6.332;2024-02-28T00:20:53;154005.09;;;-1.97;100.00
75640;BME280;64233;51.486;6.332;2024-02-28T00:23:19;154016.59;;;-1.93;100.00
75640;BME280;64233;51.486;6.332;2024-02-28T00:25:44;154030.63;;;-1.87;100.00
75640;BME280;64233;51.486;6.332;2024-02-28T00:28:10;154040.81;;;-1.83;100.00
75640;BME280;64233;51.486;6.332;2024-02-28T00:30:35;154040.81;;;-1.83;100.00
75640;BME280;64233;51.486;6.332;2024-02-28T00:33:01;154036.94;;;-1.84;100.00
75640;BME280;64233;51.486;6.332;2024-02-28T00:35:26;154022.94;;;-1.90;100.00
75640;BME280;64233;51.486;6.332;2024-02-28T00:37:51;154006.38;;;-1.97;100.00
75640;BME280;64233;51.486;6.332;2024-02-28T00:40:17;153980.88;;;-2.07;100.00
75640;BME280;64233;51.486;6.332;2024-02-28T00:42:42;153983.44;;;-2.06;100.00
75640;BME280;64233;51.486;6.332;2024-02-28T00:45:08;153964.34;;;-2.14;100.00
75640;BME280;64233;51.486;6.332;2024-02-28T00:47:34;153963.03;;;-2.14;100.00
75640;BME280;64233;51.486;6.332;2024-02-28T00:50:00;153946.50;;;-2.21;100.00
75640;BME280;64233;51.486;6.332;2024-02-28T00:52:28;153943.94;;;-2.22;100.00
75640;BME280;64233;51.486;6.332;2024-02-28T00:54:53;153922.28;;;-2.31;100.00
75640;BME280;64233;51.486;6.332;2024-02-28T00:57:19;153912.09;;;-2.35;100.00
75640;BME280;64233;51.486;6.332;2024-02-28T00:59:44;153937.56;;;-2.25;100.00
75640;BME280;64233;51.486;6.332;2024-02-28T01:02:09;153954.16;;;-2.18;100.00
75640;BME280;64233;51.486;6.332;2024-02-28T01:04:35;153905.72;;;-2.37;100.00
75640;BME280;64233;51.486;6.332;2024-02-28T01:07:00;153904.47;;;-2.38;100.00
75640;BME280;64233;51.486;6.332;2024-02-28T01:09:26;153856.06;;;-2.57;100.00
75640;BME280;64233;51.486;6.332;2024-02-28T01:11:51;153859.88;;;-2.56;100.00
75640;BME280;64233;51.486;6.332;2024-02-28T01:14:16;153898.09;;;-2.40;100.00
75640;BME280;64233;51.486;6.332;2024-02-28T01:16:42;153928.69;;;-2.28;100.00
75640;BME280;64233;51.486;6.332;2024-02-28T01:19:10;153947.75;;;-2.20;100.00
75640;BME280;64233;51.486;6.332;2024-02-28T01:21:35;153945.19;;;-2.21;100.00
75640;BME280;64233;51.486;6.332;2024-02-28T01:24:01;153938.81;;;-2.24;100.00
75640;BME280;64233;51.486;6.332;2024-02-28T01:26:26;153937.56;;;-2.25;100.00
75640;BME280;64233;51.486;6.332;2024-02-28T01:28:51;153924.81;;;-2.30;100.00
75640;BME280;64233;51.486;6.332;2024-02-28T01:31:17;153956.72;;;-2.17;100.00
75640;BME280;64233;51.486;6.332;2024-02-28T01:33:42;153964.34;;;-2.14;100.00
75640;BME280;64233;51.486;6.332;2024-02-28T01:36:07;153971.97;;;-2.11;100.00
75640;BME280;64233;51.486;6.332;2024-02-28T01:38:33;153941.38;;;-2.23;100.00
75640;BME280;64233;51.486;6.332;2024-02-28T01:40:58;153918.47;;;-2.32;100.00
75640;BME280;64233;51.486;6.332;2024-02-28T01:43:23;153895.53;;;-2.42;100.00
75640;BME280;64233;51.486;6.332;2024-02-28T01:45:50;153904.47;;;-2.38;100.00
75640;BME280;64233;51.486;6.332;2024-02-28T01:48:15;153919.72;;;-2.32;100.00
75640;BME280;64233;51.486;6.332;2024-02-28T01:50:41;153937.56;;;-2.25;100.00
75640;BME280;64233;51.486;6.332;2024-02-28T01:53:08;153932.50;;;-2.27;100.00
75640;BME280;64233;51.486;6.332;2024-02-28T01:55:35;153955.41;;;-2.17;100.00
75640;BME280;64233;51.486;6.332;2024-02-28T01:58:01;153968.16;;;-2.12;100.00
75640;BME280;64233;51.486;6.332;2024-02-28T02:00:27;153955.41;;;-2.17;100.00
75640;BME280;64233;51.486;6.332;2024-02-28T02:02:53;153943.94;;;-2.22;100.00
75640;BME280;64233;51.486;6.332;2024-02-28T02:05:19;153954.16;;;-2.18;100.00
75640;BME280;64233;51.486;6.332;2024-02-28T02:07:48;153965.59;;;-2.13;100.00
75640;BME280;64233;51.486;6.332;2024-02-28T02:10:13;153970.72;;;-2.11;100.00
75640;BME280;64233;51.486;6.332;2024-02-28T02:12:39;153969.41;;;-2.12;100.00
75640;BME280;64233;51.486;6.332;2024-02-28T02:15:05;153966.84;;;-2.13;100.00
75640;BME280;64233;51.486;6.332;2024-02-28T02:17:30;153966.84;;;-2.13;100.00
75640;BME280;64233;51.486;6.332;2024-02-28T02:19:55;153968.16;;;-2.12;100.00
75640;BME280;64233;51.486;6.332;2024-02-28T02:22:21;153994.88;;;-2.01;100.00
75640;BME280;64233;51.486;6.332;2024-02-28T02:24:46;153974.53;;;-2.10;100.00
75640;BME280;64233;51.486;6.332;2024-02-28T02:27:12;153987.25;;;-2.04;100.00
75640;BME280;64233;51.486;6.332;2024-02-28T02:29:37;154005.09;;;-1.97;100.00
75640;BME280;64233;51.486;6.332;2024-02-28T02:32:03;154016.59;;;-1.93;100.00
75640;BME280;64233;51.486;6.332;2024-02-28T02:34:28;154019.09;;;-1.92;100.00
75640;BME280;64233;51.486;6.332;2024-02-28T02:36:53;154015.28;;;-1.93;100.00
75640;BME280;64233;51.486;6.332;2024-02-28T02:39:19;154015.28;;;-1.93;100.00
75640;BME280;64233;51.486;6.332;2024-02-28T02:41:44;153997.44;;;-2.00;100.00
75640;BME280;64233;51.486;6.332;2024-02-28T02:44:10;153988.56;;;-2.04;100.00
75640;BME280;64233;51.486;6.332;2024-02-28T02:46:35;153978.34;;;-2.08;100.00
75640;BME280;64233;51.486;6.332;2024-02-28T02:49:00;153992.38;;;-2.02;100.00
75640;BME280;64233;51.486;6.332;2024-02-28T02:51:26;153989.81;;;-2.03;100.00
75640;BME280;64233;51.486;6.332;2024-02-28T02:53:51;153996.19;;;-2.01;100.00
75640;BME280;64233;51.486;6.332;2024-02-28T02:56:17;154034.44;;;-1.85;100.00
75640;BME280;64233;51.486;6.332;2024-02-28T02:58:42;154059.91;;;-1.75;100.00
75640;BME280;64233;51.486;6.332;2024-02-28T03:01:07;154062.47;;;-1.74;100.00
75640;BME280;64233;51.486;6.332;2024-02-28T03:03:34;154063.72;;;-1.74;100.00
75640;BME280;64233;51.486;6.332;2024-02-28T03:05:59;154050.97;;;-1.79;100.00
75640;BME280;64233;51.486;6.332;2024-02-28T03:08:25;154061.16;;;-1.75;100.00
75640;BME280;64233;51.486;6.332;2024-02-28T03:10:50;154073.94;;;-1.69;100.00
75640;BME280;64233;51.486;6.332;2024-02-28T03:13:15;154103.22;;;-1.58;100.00
75640;BME280;64233;51.486;6.332;2024-02-28T03:15:41;154116.00;;;-1.52;100.00
75640;BME280;64233;51.486;6.332;2024-02-28T03:18:06;154104.53;;;-1.57;100.00
75640;BME280;64233;51.486;6.332;2024-02-28T03:20:32;154123.63;;;-1.49;100.00
75640;BME280;64233;51.486;6.332;2024-02-28T03:22:57;154147.84;;;-1.40;100.00
75640;BME280;64233;51.486;6.332;2024-02-28T03:25:22;154158.06;;;-1.35;100.00
75640;BME280;64233;51.486;6.332;2024-02-28T03:27:48;154158.06;;;-1.35;100.00
75640;BME280;64233;51.486;6.332;2024-02-28T03:30:13;154155.50;;;-1.36;100.00
75640;BME280;64233;51.486;6.332;2024-02-28T03:32:38;154170.84;;;-1.30;100.00
75640;BME280;64233;51.486;6.332;2024-02-28T03:35:04;154172.09;;;-1.30;100.00
75640;BME280;64233;51.486;6.332;2024-02-28T03:37:30;154165.69;;;-1.32;100.00
75640;BME280;64233;51.486;6.332;2024-02-28T03:39:56;154164.44;;;-1.33;100.00
75640;BME280;64233;51.486;6.332;2024-02-28T03:42:22;154164.44;;;-1.33;100.00
75640;BME280;64233;51.486;6.332;2024-02-28T03:44:47;154163.13;;;-1.33;100.00
75640;BME280;64233;51.486;6.332;2024-02-28T03:47:12;154168.25;;;-1.31;100.00
75640;BME280;64233;51.486;6.332;2024-02-28T03:49:38;154169.53;;;-1.31;100.00
75640;BME280;64233;51.486;6.332;2024-02-28T03:52:03;154182.28;;;-1.26;100.00
75640;BME280;64233;51.486;6.332;2024-02-28T03:54:31;154177.16;;;-1.28;100.00
75640;BME280;64233;51.486;6.332;2024-02-28T03:56:56;154147.84;;;-1.40;100.00
75640;BME280;64233;51.486;6.332;2024-02-28T03:59:22;154133.84;;;-1.45;100.00
75640;BME280;64233;51.486;6.332;2024-02-28T04:01:47;154136.41;;;-1.44;100.00
75640;BME280;64233;51.486;6.332;2024-02-28T04:04:12;154133.84;;;-1.45;100.00
75640;BME280;64233;51.486;6.332;2024-02-28T04:06:38;154138.97;;;-1.43;100.00
75640;BME280;64233;51.486;6.332;2024-02-28T04:09:03;154122.38;;;-1.50;100.00
75640;BME280;64233;51.486;6.332;2024-02-28T04:11:29;154117.25;;;-1.52;100.00
75640;BME280;64233;51.486;6.332;2024-02-28T04:13:54;154121.06;;;-1.50;100.00
75640;BME280;64233;51.486;6.332;2024-02-28T04:16:20;154133.84;;;-1.45;100.00
75640;BME280;64233;51.486;6.332;2024-02-28T04:18:45;154130.00;;;-1.47;100.00
75640;BME280;64233;51.486;6.332;2024-02-28T04:21:10;154107.06;;;-1.56;100.00
75640;BME280;64233;51.486;6.332;2024-02-28T04:23:36;154117.25;;;-1.52;100.00
75640;BME280;64233;51.486;6.332;2024-02-28T04:26:03;154116.00;;;-1.52;100.00
75640;BME280;64233;51.486;6.332;2024-02-28T04:28:28;154093.03;;;-1.62;100.00
75640;BME280;64233;51.486;6.332;2024-02-28T04:30:54;154108.34;;;-1.56;100.00
75640;BME280;64233;51.486;6.332;2024-02-28T04:33:20;154101.97;;;-1.58;100.00
75640;BME280;64233;51.486;6.332;2024-02-28T04:35:45;154087.94;;;-1.64;100.00
75640;BME280;64233;51.486;6.332;2024-02-28T04:38:11;154093.03;;;-1.62;100.00
75640;BME280;64233;51.486;6.332;2024-02-28T04:40:36;154098.16;;;-1.60;100.00
75640;BME280;64233;51.486;6.332;2024-02-28T04:43:01;154104.53;;;-1.57;100.00
75640;BME280;64233;51.486;6.332;2024-02-28T04:45:27;154110.91;;;-1.54;100.00
75640;BME280;64233;51.486;6.332;2024-02-28T04:47:52;154118.56;;;-1.51;100.00
75640;BME280;64233;51.486;6.332;2024-02-28T04:50:19;154135.09;;;-1.45;100.00
75640;BME280;64233;51.486;6.332;2024-02-28T04:52:44;154127.44;;;-1.48;100.00
75640;BME280;64233;51.486;6.332;2024-02-28T04:55:10;154119.81;;;-1.51;100.00
75640;BME280;64233;51.486;6.332;2024-02-28T04:57:36;154110.91;;;-1.54;100.00
75640;BME280;64233;51.486;6.332;2024-02-28T05:00:01;154118.56;;;-1.51;100.00
75640;BME280;64233;51.486;6.332;2024-02-28T05:02:28;154119.81;;;-1.51;100.00
75640;BME280;64233;51.486;6.332;2024-02-28T05:04:54;154117.25;;;-1.52;100.00
75640;BME280;64233;51.486;6.332;2024-02-28T05:07:19;154114.72;;;-1.53;100.00
75640;BME280;64233;51.486;6.332;2024-02-28T05:09:45;154093.03;;;-1.62;100.00
75640;BME280;64233;51.486;6.332;2024-02-28T05:12:10;154122.38;;;-1.50;100.00
75640;BME280;64233;51.486;6.332;2024-02-28T05:14:37;154119.81;;;-1.51;100.00
75640;BME280;64233;51.486;6.332;2024-02-28T05:17:02;154094.34;;;-1.61;100.00
75640;BME280;64233;51.486;6.332;2024-02-28T05:19:28;154090.50;;;-1.63;100.00
75640;BME280;64233;51.486;6.332;2024-02-28T05:21:53;154077.75;;;-1.68;100.00
75640;BME280;64233;51.486;6.332;2024-02-28T05:24:18;154075.19;;;-1.69;100.00
75640;BME280;64233;51.486;6.332;2024-02-28T05:26:44;154094.34;;;-1.61;100.00
75640;BME280;64233;51.486;6.332;2024-02-28T05:29:09;154096.91;;;-1.60;100.00
75640;BME280;64233;51.486;6.332;2024-02-28T05:31:34;154091.78;;;-1.62;100.00
75640;BME280;64233;51.486;6.332;2024-02-28T05:34:02;154090.50;;;-1.63;100.00
75640;BME280;64233;51.486;6.332;2024-02-28T05:36:29;154094.34;;;-1.61;100.00
75640;BME280;64233;51.486;6.332;2024-02-28T05:38:56;154114.72;;;-1.53;100.00
75640;BME280;64233;51.486;6.332;2024-02-28T05:41:22;154140.22;;;-1.43;100.00
75640;BME280;64233;51.486;6.332;2024-02-28T05:43:48;154126.19;;;-1.48;100.00
75640;BME280;64233;51.486;6.332;2024-02-28T05:46:14;154127.44;;;-1.48;100.00
75640;BME280;64233;51.486;6.332;2024-02-28T05:48:41;154113.44;;;-1.53;100.00
75640;BME280;64233;51.486;6.332;2024-02-28T05:51:06;154113.44;;;-1.53;100.00
75640;BME280;64233;51.486;6.332;2024-02-28T05:53:31;154133.84;;;-1.45;100.00
75640;BME280;64233;51.486;6.332;2024-02-28T05:56:03;154147.84;;;-1.40;100.00
75640;BME280;64233;51.486;6.332;2024-02-28T05:58:29;154142.78;;;-1.42;100.00
75640;BME280;64233;51.486;6.332;2024-02-28T06:00:55;154136.41;;;-1.44;100.00
75640;BME280;64233;51.486;6.332;2024-02-28T06:03:20;154121.06;;;-1.50;100.00
75640;BME280;64233;51.486;6.332;2024-02-28T06:05:46;154144.03;;;-1.41;100.00
75640;BME280;64233;51.486;6.332;2024-02-28T06:08:12;154152.97;;;-1.37;100.00
75640;BME280;64233;51.486;6.332;2024-02-28T06:10:37;154152.97;;;-1.37;100.00
75640;BME280;64233;51.486;6.332;2024-02-28T06:13:03;154133.84;;;-1.45;100.00
75640;BME280;64233;51.486;6.332;2024-02-28T06:15:28;154149.13;;;-1.39;100.00
75640;BME280;64233;51.486;6.332;2024-02-28T06:17:56;154165.69;;;-1.32;100.00
75640;BME280;64233;51.486;6.332;2024-02-28T06:20:22;154161.88;;;-1.34;100.00
75640;BME280;64233;51.486;6.332;2024-02-28T06:22:47;154156.81;;;-1.36;100.00
75640;BME280;64233;51.486;6.332;2024-02-28T06:25:12;154159.31;;;-1.35;100.00
75640;BME280;64233;51.486;6.332;2024-02-28T06:27:47;154180.97;;;-1.26;100.00
75640;BME280;64233;51.486;6.332;2024-02-28T06:30:12;154189.94;;;-1.23;100.00
75640;BME280;64233;51.486;6.332;2024-02-28T06:32:38;154200.13;;;-1.18;100.00
75640;BME280;64233;51.486;6.332;2024-02-28T06:35:04;154203.97;;;-1.17;97.83
75640;BME280;64233;51.486;6.332;2024-02-28T06:37:29;154211.59;;;-1.14;96.64
75640;BME280;64233;51.486;6.332;2024-02-28T06:39:55;154212.91;;;-1.13;100.00
75640;BME280;64233;51.486;6.332;2024-02-28T06:42:22;154219.25;;;-1.11;96.72
75640;BME280;64233;51.486;6.332;2024-02-28T06:44:48;154230.75;;;-1.06;100.00
75640;BME280;64233;51.486;6.332;2024-02-28T06:47:13;154234.56;;;-1.05;97.36
75640;BME280;64233;51.486;6.332;2024-02-28T06:49:38;154214.16;;;-1.13;96.08
75640;BME280;64233;51.486;6.332;2024-02-28T06:52:04;154230.75;;;-1.06;98.86
75640;BME280;64233;51.486;6.332;2024-02-28T06:54:30;154240.97;;;-1.02;97.17
75640;BME280;64233;51.486;6.332;2024-02-28T06:56:55;154252.41;;;-0.97;96.02
75640;BME280;64233;51.486;6.332;2024-02-28T06:59:21;154266.44;;;-0.92;95.17
75640;BME280;64233;51.486;6.332;2024-02-28T07:01:46;154269.03;;;-0.91;94.51
75640;BME280;64233;51.486;6.332;2024-02-28T07:04:11;154269.03;;;-0.91;94.83
75640;BME280;64233;51.486;6.332;2024-02-28T07:06:37;154277.91;;;-0.87;94.80
75640;BME280;64233;51.486;6.332;2024-02-28T07:09:02;154289.38;;;-0.82;95.97
75640;BME280;64233;51.486;6.332;2024-02-28T07:11:28;154305.97;;;-0.76;95.46
75640;BME280;64233;51.486;6.332;2024-02-28T07:13:53;154336.59;;;-0.63;94.29
75640;BME280;64233;51.486;6.332;2024-02-28T07:16:18;154351.88;;;-0.57;94.25
75640;BME280;64233;51.486;6.332;2024-02-28T07:18:44;154372.31;;;-0.49;94.07
75640;BME280;64233;51.486;6.332;2024-02-28T07:21:09;154378.69;;;-0.46;94.51
75640;BME280;64233;51.486;6.332;2024-02-28T07:23:35;154379.97;;;-0.46;94.74
75640;BME280;64233;51.486;6.332;2024-02-28T07:26:00;154385.09;;;-0.44;94.68
75640;BME280;64233;51.486;6.332;2024-02-28T07:28:25;154415.66;;;-0.31;94.84
75640;BME280;64233;51.486;6.332;2024-02-28T07:30:51;154431.00;;;-0.25;95.52
75640;BME280;64233;51.486;6.332;2024-02-28T07:33:16;154443.75;;;-0.20;94.68
75640;BME280;64233;51.486;6.332;2024-02-28T07:35:48;154455.25;;;-0.15;95.17
75640;BME280;64233;51.486;6.332;2024-02-28T07:38:14;154462.91;;;-0.12;95.10
75640;BME280;64233;51.486;6.332;2024-02-28T07:40:39;154485.84;;;-0.03;94.68
75640;BME280;64233;51.486;6.332;2024-02-28T07:43:05;154508.84;;;0.06;94.44
75640;BME280;64233;51.486;6.332;2024-02-28T07:45:30;154534.34;;;0.16;93.91
75640;BME280;64233;51.486;6.332;2024-02-28T07:47:56;154543.31;;;0.20;93.97
75640;BME280;64233;51.486;6.332;2024-02-28T07:50:21;154531.78;;;0.15;94.91
75640;BME280;64233;51.486;6.332;2024-02-28T07:52:46;154531.78;;;0.15;97.80
75640;BME280;64233;51.486;6.332;2024-02-28T07:55:12;154561.19;;;0.27;94.31
75640;BME280;64233;51.486;6.332;2024-02-28T07:57:37;154570.09;;;0.31;93.46
75640;BME280;64233;51.486;6.332;2024-02-28T08:00:03;154581.59;;;0.36;95.58
75640;BME280;64233;51.486;6.332;2024-02-28T08:02:29;154586.69;;;0.38;94.40
75640;BME280;64233;51.486;6.332;2024-02-28T08:04:54;154604.56;;;0.45;93.86
75640;BME280;64233;51.486;6.332;2024-02-28T08:07:20;154590.50;;;0.39;93.30
75640;BME280;64233;51.486;6.332;2024-02-28T08:09:45;154621.16;;;0.51;93.62
75640;BME280;64233;51.486;6.332;2024-02-28T08:12:10;154607.13;;;0.46;94.14
75640;BME280;64233;51.486;6.332;2024-02-28T08:14:36;154627.56;;;0.54;96.07
75640;BME280;64233;51.486;6.332;2024-02-28T08:17:01;154653.06;;;0.64;100.00
75640;BME280;64233;51.486;6.332;2024-02-28T08:19:26;65746.81;;;-146.04;100.00
75640;BME280;64233;51.486;6.332;2024-02-28T08:21:52;65746.81;;;-146.04;100.00
75640;BME280;64233;51.486;6.332;2024-02-28T08:24:17;65746.81;;;-146.04;100.00
75640;BME280;64233;51.486;6.332;2024-02-28T08:26:42;65746.81;;;-146.04;100.00
75640;BME280;64233;51.486;6.332;2024-02-28T08:29:08;65746.81;;;-146.04;100.00
75640;BME280;64233;51.486;6.332;2024-02-28T08:31:39;65746.81;;;-146.04;100.00
75640;BME280;64233;51.486;6.332;2024-02-28T08:34:04;65746.81;;;-146.04;100.00
75640;BME280;64233;51.486;6.332;2024-02-28T08:36:30;65746.81;;;-146.04;100.00
75640;BME280;64233;51.486;6.332;2024-02-28T08:38:55;65746.81;;;-146.04;100.00
75640;BME280;64233;51.486;6.332;2024-02-28T08:41:21;65746.81;;;-146.04;100.00
75640;BME280;64233;51.486;6.332;2024-02-28T08:43:46;65746.81;;;-146.04;100.00
75640;BME280;64233;51.486;6.332;2024-02-28T08:46:14;65746.81;;;-146.04;100.00
75640;BME280;64233;51.486;6.332;2024-02-28T08:48:41;65746.81;;;-146.04;100.00
75640;BME280;64233;51.486;6.332;2024-02-28T08:51:06;65746.81;;;-146.04;100.00
75640;BME280;64233;51.486;6.332;2024-02-28T08:53:31;65746.81;;;-146.04;100.00
75640;BME280;64233;51.486;6.332;2024-02-28T08:55:57;65746.81;;;-146.04;100.00
75640;BME280;64233;51.486;6.332;2024-02-28T08:58:22;65746.81;;;-146.04;100.00
75640;BME280;64233;51.486;6.332;2024-02-28T09:00:47;65746.81;;;-146.04;100.00
75640;BME280;64233;51.486;6.332;2024-02-28T09:03:14;65746.81;;;-146.04;100.00
75640;BME280;64233;51.486;6.332;2024-02-28T09:05:39;65746.81;;;-146.04;100.00
75640;BME280;64233;51.486;6.332;2024-02-28T09:08:05;65746.81;;;-146.04;100.00
75640;BME280;64233;51.486;6.332;2024-02-28T09:10:30;65746.81;;;-146.04;100.00
75640;BME280;64233;51.486;6.332;2024-02-28T09:12:59;65746.81;;;-146.04;100.00
75640;BME280;64233;51.486;6.332;2024-02-28T09:15:24;65746.81;;;-146.04;100.00
75640;BME280;64233;51.486;6.332;2024-02-28T09:17:50;65746.81;;;-146.04;100.00
75640;BME280;64233;51.486;6.332;2024-02-28T09:20:15;65746.81;;;-146.04;100.00
75640;BME280;64233;51.486;6.332;2024-02-28T09:22:42;65746.81;;;-146.04;100.00
75640;BME280;64233;51.486;6.332;2024-02-28T09:25:07;65746.81;;;-146.04;100.00
75640;BME280;64233;51.486;6.332;2024-02-28T09:27:34;65746.81;;;-146.04;100.00
75640;BME280;64233;51.486;6.332;2024-02-28T09:30:00;65746.81;;;-146.04;100.00
75640;BME280;64233;51.486;6.332;2024-02-28T09:32:26;65746.81;;;-146.04;100.00
75640;BME280;64233;51.486;6.332;2024-02-28T09:34:51;65746.81;;;-146.04;100.00
75640;BME280;64233;51.486;6.332;2024-02-28T09:37:16;65746.81;;;-146.04;100.00
75640;BME280;64233;51.486;6.332;2024-02-28T09:39:42;65746.81;;;-146.04;100.00
75640;BME280;64233;51.486;6.332;2024-02-28T09:42:09;65746.81;;;-146.04;100.00
75640;BME280;64233;51.486;6.332;2024-02-28T09:44:36;65746.81;;;-146.04;100.00
75640;BME280;64233;51.486;6.332;2024-02-28T09:47:02;65746.81;;;-146.04;100.00
75640;BME280;64233;51.486;6.332;2024-02-28T09:49:28;65746.81;;;-146.04;100.00
75640;BME280;64233;51.486;6.332;2024-02-28T09:51:56;65746.81;;;-146.04;100.00
75640;BME280;64233;51.486;6.332;2024-02-28T09:54:22;65746.81;;;-146.04;100.00
75640;BME280;64233;51.486;6.332;2024-02-28T09:56:48;65746.81;;;-146.04;100.00
75640;BME280;64233;51.486;6.332;2024-02-28T09:59:15;65746.81;;;-146.04;100.00
75640;BME280;64233;51.486;6.332;2024-02-28T10:01:43;65746.81;;;-146.04;100.00
75640;BME280;64233;51.486;6.332;2024-02-28T10:04:10;65746.81;;;-146.04;100.00
75640;BME280;64233;51.486;6.332;2024-02-28T10:06:39;65746.81;;;-146.04;100.00
75640;BME280;64233;51.486;6.332;2024-02-28T10:09:05;65746.81;;;-146.04;100.00
75640;BME280;64233;51.486;6.332;2024-02-28T10:11:30;65746.81;;;-146.04;100.00
75640;BME280;64233;51.486;6.332;2024-02-28T10:13:55;65746.81;;;-146.04;100.00
75640;BME280;64233;51.486;6.332;2024-02-28T10:16:21;65746.81;;;-146.04;100.00
75640;BME280;64233;51.486;6.332;2024-02-28T10:18:46;65746.81;;;-146.04;100.00
75640;BME280;64233;51.486;6.332;2024-02-28T10:21:12;65746.81;;;-146.04;100.00
75640;BME280;64233;51.486;6.332;2024-02-28T10:23:39;65746.81;;;-146.04;100.00
75640;BME280;64233;51.486;6.332;2024-02-28T10:26:04;65746.81;;;-146.04;100.00
75640;BME280;64233;51.486;6.332;2024-02-28T10:28:30;65746.81;;;-146.04;100.00
75640;BME280;64233;51.486;6.332;2024-02-28T10:30:55;65746.81;;;-146.04;100.00
75640;BME280;64233;51.486;6.332;2024-02-28T10:33:20;65746.81;;;-146.04;100.00
75640;BME280;64233;51.486;6.332;2024-02-28T10:35:50;65746.81;;;-146.04;100.00
75640;BME280;64233;51.486;6.332;2024-02-28T10:38:17;65746.81;;;-146.04;100.00
75640;BME280;64233;51.486;6.332;2024-02-28T10:40:42;65746.81;;;-146.04;100.00
75640;BME280;64233;51.486;6.332;2024-02-28T10:43:08;65746.81;;;-146.04;100.00
75640;BME280;64233;51.486;6.332;2024-02-28T10:45:38;65746.81;;;-146.04;100.00
75640;BME280;64233;51.486;6.332;2024-02-28T10:48:05;65746.81;;;-146.04;100.00
75640;BME280;64233;51.486;6.332;2024-02-28T10:50:31;65746.81;;;-146.04;100.00
75640;BME280;64233;51.486;6.332;2024-02-28T10:53:13;65746.81;;;-146.04;100.00
75640;BME280;64233;51.486;6.332;2024-02-28T10:55:44;65746.81;;;-146.04;100.00
75640;BME280;64233;51.486;6.332;2024-02-28T10:58:11;65746.81;;;-146.04;100.00
75640;BME280;64233;51.486;6.332;2024-02-28T11:00:42;65746.81;;;-146.04;100.00
75640;BME280;64233;51.486;6.332;2024-02-28T11:03:10;65746.81;;;-146.04;100.00
75640;BME280;64233;51.486;6.332;2024-02-28T11:05:41;65746.81;;;-146.04;100.00
75640;BME280;64233;51.486;6.332;2024-02-28T11:08:10;65746.81;;;-146.04;100.00
75640;BME280;64233;51.486;6.332;2024-02-28T11:10:40;65746.81;;;-146.04;100.00
75640;BME280;64233;51.486;6.332;2024-02-28T11:13:06;65746.81;;;-146.04;100.00
75640;BME280;64233;51.486;6.332;2024-02-28T11:15:32;65746.81;;;-146.04;100.00
75640;BME280;64233;51.486;6.332;2024-02-28T11:18:07;65746.81;;;-146.04;100.00
75640;BME280;64233;51.486;6.332;2024-02-28T11:20:34;65746.81;;;-146.04;100.00
75640;BME280;64233;51.486;6.332;2024-02-28T11:23:00;65746.81;;;-146.04;100.00
75640;BME280;64233;51.486;6.332;2024-02-28T11:25:25;65746.81;;;-146.04;100.00
75640;BME280;64233;51.486;6.332;2024-02-28T11:27:51;65746.81;;;-146.04;100.00
75640;BME280;64233;51.486;6.332;2024-02-28T11:30:17;65746.81;;;-146.04;100.00
75640;BME280;64233;51.486;6.332;2024-02-28T11:32:42;65746.81;;;-146.04;100.00
75640;BME280;64233;51.486;6.332;2024-02-28T11:35:09;65746.81;;;-146.04;100.00
75640;BME280;64233;51.486;6.332;2024-02-28T11:37:34;65746.81;;;-146.04;100.00
75640;BME280;64233;51.486;6.332;2024-02-28T11:40:00;65746.81;;;-146.04;100.00
75640;BME280;64233;51.486;6.332;2024-02-28T11:42:25;65746.81;;;-146.04;100.00
75640;BME280;64233;51.486;6.332;2024-02-28T11:44:54;65746.81;;;-146.04;100.00
75640;BME280;64233;51.486;6.332;2024-02-28T11:47:23;65746.81;;;-146.04;100.00
75640;BME280;64233;51.486;6.332;2024-02-28T11:49:49;65746.81;;;-146.04;100.00
75640;BME280;64233;51.486;6.332;2024-02-28T11:52:14;65746.81;;;-146.04;100.00
75640;BME280;64233;51.486;6.332;2024-02-28T11:54:39;65746.81;;;-146.04;100.00
75640;BME280;64233;51.486;6.332;2024-02-28T11:57:07;65746.81;;;-146.04;100.00
75640;BME280;64233;51.486;6.332;2024-02-28T11:59:32;65746.81;;;-146.04;100.00
75640;BME280;64233;51.486;6.332;2024-02-28T12:01:58;65746.81;;;-146.04;100.00
75640;BME280;64233;51.486;6.332;2024-02-28T12:04:24;65746.81;;;-146.04;100.00
75640;BME280;64233;51.486;6.332;2024-02-28T12:06:50;65746.81;;;-146.04;100.00
75640;BME280;64233;51.486;6.332;2024-02-28T12:09:16;65746.81;;;-146.04;100.00
75640;BME280;64233;51.486;6.332;2024-02-28T12:11:43;65746.81;;;-146.04;100.00
75640;BME280;64233;51.486;6.332;2024-02-28T12:14:09;65746.81;;;-146.04;100.00
75640;BME280;64233;51.486;6.332;2024-02-28T12:16:39;65746.81;;;-146.04;100.00
75640;BME280;64233;51.486;6.332;2024-02-28T12:19:11;65746.81;;;-146.04;100.00
75640;BME280;64233;51.486;6.332;2024-02-28T12:21:38;65746.81;;;-146.04;100.00
75640;BME280;64233;51.486;6.332;2024-02-28T12:24:06;65746.81;;;-146.04;100.00
75640;BME280;64233;51.486;6.332;2024-02-28T12:26:32;65746.81;;;-146.04;100.00
75640;BME280;64233;51.486;6.332;2024-02-28T12:28:57;65746.81;;;-146.04;100.00
75640;BME280;64233;51.486;6.332;2024-02-28T12:31:23;65746.81;;;-146.04;100.00